sensor_id;sensor_type;location;lat;lon;timestamp;P1;P2;P0
44045;PMS7003;29709;52.396;16.796;2024-03-06T00:02:57;18;16;11
44045;PMS7003;29709;52.396;16.796;2024-03-06T00:06:10;21;20;14
44045;PMS7003;29709;52.396;16.796;2024-03-06T00:09:23;18;15;11
44045;PMS7003;29709;52.396;16.796;2024-03-06T00:12:39;21;18;12
44045;PMS7003;29709;52.396;16.796;2024-03-06T00:15:53;24;20;14
44045;PMS7003;29709;52.396;16.796;2024-03-06T00:19:06;16;14;9
44045;PMS7003;29709;52.396;16.796;2024-03-06T00:22:19;12;6;1
44045;PMS7003;29709;52.396;16.796;2024-03-06T00:25:33;20;17;11
44045;PMS7003;29709;52.396;16.796;2024-03-06T00:28:47;22;19;14
44045;PMS7003;29709;52.396;16.796;2024-03-06T00:32:00;28;22;14
44045;PMS7003;29709;52.396;16.796;2024-03-06T00:35:13;23;19;13
44045;PMS7003;29709;52.396;16.796;2024-03-06T00:38:27;19;14;11
44045;PMS7003;29709;52.396;16.796;2024-03-06T00:41:40;13;12;8
44045;PMS7003;29709;52.396;16.796;2024-03-06T00:44:54;16;11;8
44045;PMS7003;29709;52.396;16.796;2024-03-06T00:48:08;19;16;12
44045;PMS7003;29709;52.396;16.796;2024-03-06T00:51:21;19;15;10
44045;PMS7003;29709;52.396;16.796;2024-03-06T00:54:35;15;12;7
44045;PMS7003;29709;52.396;16.796;2024-03-06T00:57:48;18;16;12
44045;PMS7003;29709;52.396;16.796;2024-03-06T01:01:02;25;20;12
44045;PMS7003;29709;52.396;16.796;2024-03-06T01:04:17;14;12;8
44045;PMS7003;29709;52.396;16.796;2024-03-06T01:07:30;16;12;7
44045;PMS7003;29709;52.396;16.796;2024-03-06T01:10:43;10;9;6
44045;PMS7003;29709;52.396;16.796;2024-03-06T01:13:57;4;3;1
44045;PMS7003;29709;52.396;16.796;2024-03-06T01:17:10;16;12;9
44045;PMS7003;29709;52.396;16.796;2024-03-06T01:20:24;15;11;8
44045;PMS7003;29709;52.396;16.796;2024-03-06T01:23:39;15;14;10
44045;PMS7003;29709;52.396;16.796;2024-03-06T01:26:53;13;12;8
44045;PMS7003;29709;52.396;16.796;2024-03-06T01:30:06;17;13;8
44045;PMS7003;29709;52.396;16.796;2024-03-06T01:33:20;16;14;9
44045;PMS7003;29709;52.396;16.796;2024-03-06T01:36:34;15;13;9
44045;PMS7003;29709;52.396;16.796;2024-03-06T01:39:47;12;12;8
44045;PMS7003;29709;52.396;16.796;2024-03-06T01:43:00;21;15;9
44045;PMS7003;29709;52.396;16.796;2024-03-06T01:46:13;20;16;12
44045;PMS7003;29709;52.396;16.796;2024-03-06T01:49:27;16;15;10
44045;PMS7003;29709;52.396;16.796;2024-03-06T01:52:40;22;18;12
44045;PMS7003;29709;52.396;16.796;2024-03-06T01:55:55;16;14;10
44045;PMS7003;29709;52.396;16.796;2024-03-06T01:59:08;18;15;9
44045;PMS7003;29709;52.396;16.796;2024-03-06T02:02:22;16;15;11
44045;PMS7003;29709;52.396;16.796;2024-03-06T02:05:35;14;11;8
44045;PMS7003;29709;52.396;16.796;2024-03-06T02:08:49;17;12;9
44045;PMS7003;29709;52.396;16.796;2024-03-06T02:12:02;15;13;7
44045;PMS7003;29709;52.396;16.796;2024-03-06T02:15:15;14;13;9
44045;PMS7003;29709;52.396;16.796;2024-03-06T02:18:29;17;14;9
44045;PMS7003;29709;52.396;16.796;2024-03-06T02:21:42;16;12;9
44045;PMS7003;29709;52.396;16.796;2024-03-06T02:24:55;12;11;8
44045;PMS7003;29709;52.396;16.796;2024-03-06T02:28:10;9;7;5
44045;PMS7003;29709;52.396;16.796;2024-03-06T02:31:23;5;5;4
44045;PMS7003;29709;52.396;16.796;2024-03-06T02:34:36;9;8;6
44045;PMS7003;29709;52.396;16.796;2024-03-06T02:37:49;9;9;6
44045;PMS7003;29709;52.396;16.796;2024-03-06T02:41:03;11;10;7
44045;PMS7003;29709;52.396;16.796;2024-03-06T02:44:20;9;6;5
44045;PMS7003;29709;52.396;16.796;2024-03-06T02:47:33;3;2;0
44045;PMS7003;29709;52.396;16.796;2024-03-06T02:50:46;5;4;2
44045;PMS7003;29709;52.396;16.796;2024-03-06T02:53:59;8;5;4
44045;PMS7003;29709;52.396;16.796;2024-03-06T02:57:13;6;5;4
44045;PMS7003;29709;52.396;16.796;2024-03-06T03:00:26;6;6;4
44045;PMS7003;29709;52.396;16.796;2024-03-06T03:03:40;7;5;4
44045;PMS7003;29709;52.396;16.796;2024-03-06T03:06:55;8;6;4
44045;PMS7003;29709;52.396;16.796;2024-03-06T03:10:08;9;8;5
44045;PMS7003;29709;52.396;16.796;2024-03-06T03:13:23;9;8;5
44045;PMS7003;29709;52.396;16.796;2024-03-06T03:16:36;9;6;5
44045;PMS7003;29709;52.396;16.796;2024-03-06T03:19:49;9;7;5
44045;PMS7003;29709;52.396;16.796;2024-03-06T03:23:03;9;7;4
44045;PMS7003;29709;52.396;16.796;2024-03-06T03:26:16;8;6;4
44045;PMS7003;29709;52.396;16.796;2024-03-06T03:29:29;7;6;4
44045;PMS7003;29709;52.396;16.796;2024-03-06T03:32:42;6;6;4
44045;PMS7003;29709;52.396;16.796;2024-03-06T03:35:56;9;7;5
44045;PMS7003;29709;52.396;16.796;2024-03-06T03:41:12;9;8;4
44045;PMS7003;29709;52.396;16.796;2024-03-06T03:44:26;8;5;3
44045;PMS7003;29709;52.396;16.796;2024-03-06T03:47:40;9;8;6
44045;PMS7003;29709;52.396;16.796;2024-03-06T03:50:55;8;8;4
44045;PMS7003;29709;52.396;16.796;2024-03-06T03:54:08;9;7;5
44045;PMS7003;29709;52.396;16.796;2024-03-06T03:57:21;7;5;4
44045;PMS7003;29709;52.396;16.796;2024-03-06T04:00:35;12;10;6
44045;PMS7003;29709;52.396;16.796;2024-03-06T04:03:50;7;5;4
44045;PMS7003;29709;52.396;16.796;2024-03-06T04:07:04;11;7;5
44045;PMS7003;29709;52.396;16.796;2024-03-06T04:10:19;9;7;5
44045;PMS7003;29709;52.396;16.796;2024-03-06T04:13:35;10;8;5
44045;PMS7003;29709;52.396;16.796;2024-03-06T04:16:51;11;9;6
44045;PMS7003;29709;52.396;16.796;2024-03-06T04:20:04;9;8;6
44045;PMS7003;29709;52.396;16.796;2024-03-06T04:23:20;8;7;4
44045;PMS7003;29709;52.396;16.796;2024-03-06T04:26:33;7;7;5
44045;PMS7003;29709;52.396;16.796;2024-03-06T04:29:46;11;10;6
44045;PMS7003;29709;52.396;16.796;2024-03-06T04:33:00;13;12;9
44045;PMS7003;29709;52.396;16.796;2024-03-06T04:36:13;14;11;7
44045;PMS7003;29709;52.396;16.796;2024-03-06T04:39:27;10;9;6
44045;PMS7003;29709;52.396;16.796;2024-03-06T04:42:40;11;8;5
44045;PMS7003;29709;52.396;16.796;2024-03-06T04:45:53;11;10;7
44045;PMS7003;29709;52.396;16.796;2024-03-06T04:49:06;4;3;1
44045;PMS7003;29709;52.396;16.796;2024-03-06T04:52:21;14;11;6
44045;PMS7003;29709;52.396;16.796;2024-03-06T04:55:34;9;7;6
44045;PMS7003;29709;52.396;16.796;2024-03-06T04:58:49;14;11;8
44045;PMS7003;29709;52.396;16.796;2024-03-06T05:02:05;16;13;8
44045;PMS7003;29709;52.396;16.796;2024-03-06T05:05:18;15;13;8
44045;PMS7003;29709;52.396;16.796;2024-03-06T05:08:31;13;12;8
44045;PMS7003;29709;52.396;16.796;2024-03-06T05:11:44;13;11;6
44045;PMS7003;29709;52.396;16.796;2024-03-06T05:14:58;12;8;6
44045;PMS7003;29709;52.396;16.796;2024-03-06T05:18:11;13;10;5
44045;PMS7003;29709;52.396;16.796;2024-03-06T05:21:24;14;12;8
44045;PMS7003;29709;52.396;16.796;2024-03-06T05:24:37;9;7;4
44045;PMS7003;29709;52.396;16.796;2024-03-06T05:27:50;17;14;9
44045;PMS7003;29709;52.396;16.796;2024-03-06T05:31:22;15;11;8
44045;PMS7003;29709;52.396;16.796;2024-03-06T05:34:31;16;14;9
44045;PMS7003;29709;52.396;16.796;2024-03-06T05:37:44;12;11;9
44045;PMS7003;29709;52.396;16.796;2024-03-06T05:40:58;15;12;7
44045;PMS7003;29709;52.396;16.796;2024-03-06T05:44:11;14;11;8
44045;PMS7003;29709;52.396;16.796;2024-03-06T05:47:24;11;10;7
44045;PMS7003;29709;52.396;16.796;2024-03-06T05:50:38;14;9;6
44045;PMS7003;29709;52.396;16.796;2024-03-06T05:53:51;10;9;6
44045;PMS7003;29709;52.396;16.796;2024-03-06T05:57:04;11;9;7
44045;PMS7003;29709;52.396;16.796;2024-03-06T06:00:18;14;11;7
44045;PMS7003;29709;52.396;16.796;2024-03-06T06:03:35;18;15;10
44045;PMS7003;29709;52.396;16.796;2024-03-06T06:06:48;16;15;11
44045;PMS7003;29709;52.396;16.796;2024-03-06T06:10:01;17;14;9
44045;PMS7003;29709;52.396;16.796;2024-03-06T06:13:14;17;13;9
44045;PMS7003;29709;52.396;16.796;2024-03-06T06:16:34;13;12;8
44045;PMS7003;29709;52.396;16.796;2024-03-06T06:19:53;13;12;8
44045;PMS7003;29709;52.396;16.796;2024-03-06T06:23:06;19;14;9
44045;PMS7003;29709;52.396;16.796;2024-03-06T06:26:19;16;13;10
44045;PMS7003;29709;52.396;16.796;2024-03-06T06:29:33;17;13;8
44045;PMS7003;29709;52.396;16.796;2024-03-06T06:32:46;20;16;11
44045;PMS7003;29709;52.396;16.796;2024-03-06T06:35:59;19;17;9
44045;PMS7003;29709;52.396;16.796;2024-03-06T06:39:13;13;7;3
44045;PMS7003;29709;52.396;16.796;2024-03-06T06:42:26;14;13;7
44045;PMS7003;29709;52.396;16.796;2024-03-06T06:45:39;15;12;7
44045;PMS7003;29709;52.396;16.796;2024-03-06T06:48:53;16;13;9
44045;PMS7003;29709;52.396;16.796;2024-03-06T06:52:06;14;13;9
44045;PMS7003;29709;52.396;16.796;2024-03-06T06:55:20;17;15;11
44045;PMS7003;29709;52.396;16.796;2024-03-06T06:58:37;16;13;9
44045;PMS7003;29709;52.396;16.796;2024-03-06T07:01:50;19;13;8
44045;PMS7003;29709;52.396;16.796;2024-03-06T07:05:03;1;0;0
44045;PMS7003;29709;52.396;16.796;2024-03-06T07:08:17;19;15;10
44045;PMS7003;29709;52.396;16.796;2024-03-06T07:11:30;18;15;11
44045;PMS7003;29709;52.396;16.796;2024-03-06T07:14:43;16;14;10
44045;PMS7003;29709;52.396;16.796;2024-03-06T07:17:57;18;16;12
44045;PMS7003;29709;52.396;16.796;2024-03-06T07:21:10;20;17;11
44045;PMS7003;29709;52.396;16.796;2024-03-06T07:24:23;18;17;11
44045;PMS7003;29709;52.396;16.796;2024-03-06T07:27:37;14;11;6
44045;PMS7003;29709;52.396;16.796;2024-03-06T07:30:50;16;16;12
44045;PMS7003;29709;52.396;16.796;2024-03-06T07:34:03;19;15;10
44045;PMS7003;29709;52.396;16.796;2024-03-06T07:37:17;20;16;11
44045;PMS7003;29709;52.396;16.796;2024-03-06T07:40:30;19;15;10
44045;PMS7003;29709;52.396;16.796;2024-03-06T07:43:47;17;16;9
44045;PMS7003;29709;52.396;16.796;2024-03-06T07:47:01;19;16;10
44045;PMS7003;29709;52.396;16.796;2024-03-06T07:50:15;24;18;11
44045;PMS7003;29709;52.396;16.796;2024-03-06T07:53:31;22;17;11
44045;PMS7003;29709;52.396;16.796;2024-03-06T07:56:44;19;16;11
44045;PMS7003;29709;52.396;16.796;2024-03-06T07:59:58;14;11;9
44045;PMS7003;29709;52.396;16.796;2024-03-06T08:03:11;10;10;7
44045;PMS7003;29709;52.396;16.796;2024-03-06T08:06:27;11;9;6
44045;PMS7003;29709;52.396;16.796;2024-03-06T08:09:44;10;9;6
44045;PMS7003;29709;52.396;16.796;2024-03-06T08:12:57;9;8;6
44045;PMS7003;29709;52.396;16.796;2024-03-06T08:16:10;11;10;7
44045;PMS7003;29709;52.396;16.796;2024-03-06T08:19:24;10;8;6
44045;PMS7003;29709;52.396;16.796;2024-03-06T08:22:39;10;8;5
44045;PMS7003;29709;52.396;16.796;2024-03-06T08:25:54;11;9;6
44045;PMS7003;29709;52.396;16.796;2024-03-06T08:29:08;9;7;5
44045;PMS7003;29709;52.396;16.796;2024-03-06T08:32:21;10;9;6
44045;PMS7003;29709;52.396;16.796;2024-03-06T08:35:35;10;9;6
44045;PMS7003;29709;52.396;16.796;2024-03-06T08:38:49;7;7;5
44045;PMS7003;29709;52.396;16.796;2024-03-06T08:42:04;14;10;6
44045;PMS7003;29709;52.396;16.796;2024-03-06T08:45:17;11;9;6
44045;PMS7003;29709;52.396;16.796;2024-03-06T08:48:33;8;8;6
44045;PMS7003;29709;52.396;16.796;2024-03-06T08:51:46;8;8;5
44045;PMS7003;29709;52.396;16.796;2024-03-06T08:55:00;15;12;8
44045;PMS7003;29709;52.396;16.796;2024-03-06T08:58:13;16;14;9
44045;PMS7003;29709;52.396;16.796;2024-03-06T09:01:26;12;10;7
44045;PMS7003;29709;52.396;16.796;2024-03-06T09:04:40;9;8;5
44045;PMS7003;29709;52.396;16.796;2024-03-06T09:07:57;7;6;4
44045;PMS7003;29709;52.396;16.796;2024-03-06T09:11:10;12;9;6
44045;PMS7003;29709;52.396;16.796;2024-03-06T09:14:24;12;10;7
44045;PMS7003;29709;52.396;16.796;2024-03-06T09:17:37;10;9;7
44045;PMS7003;29709;52.396;16.796;2024-03-06T09:20:51;11;9;6
44045;PMS7003;29709;52.396;16.796;2024-03-06T09:24:04;9;9;6
44045;PMS7003;29709;52.396;16.796;2024-03-06T09:27:18;13;11;8
44045;PMS7003;29709;52.396;16.796;2024-03-06T09:30:31;13;11;7
44045;PMS7003;29709;52.396;16.796;2024-03-06T09:33:44;11;8;5
44045;PMS7003;29709;52.396;16.796;2024-03-06T09:36:58;13;10;6
44045;PMS7003;29709;52.396;16.796;2024-03-06T09:40:16;11;10;7
44045;PMS7003;29709;52.396;16.796;2024-03-06T09:43:34;10;8;6
44045;PMS7003;29709;52.396;16.796;2024-03-06T09:46:48;12;10;7
44045;PMS7003;29709;52.396;16.796;2024-03-06T09:50:02;9;7;5
44045;PMS7003;29709;52.396;16.796;2024-03-06T09:53:18;14;10;7
44045;PMS7003;29709;52.396;16.796;2024-03-06T09:56:35;9;7;5
44045;PMS7003;29709;52.396;16.796;2024-03-06T09:59:48;12;10;6
44045;PMS7003;29709;52.396;16.796;2024-03-06T10:03:02;12;9;5
44045;PMS7003;29709;52.396;16.796;2024-03-06T10:06:21;9;9;6
44045;PMS7003;29709;52.396;16.796;2024-03-06T10:09:35;12;9;6
44045;PMS7003;29709;52.396;16.796;2024-03-06T10:12:48;10;8;6
44045;PMS7003;29709;52.396;16.796;2024-03-06T10:16:02;6;6;4
44045;PMS7003;29709;52.396;16.796;2024-03-06T10:19:23;9;9;7
44045;PMS7003;29709;52.396;16.796;2024-03-06T10:22:41;10;9;6
44045;PMS7003;29709;52.396;16.796;2024-03-06T10:25:54;11;7;5
44045;PMS7003;29709;52.396;16.796;2024-03-06T10:29:08;11;8;6
44045;PMS7003;29709;52.396;16.796;2024-03-06T10:32:21;10;9;6
44045;PMS7003;29709;52.396;16.796;2024-03-06T10:35:35;11;8;6
44045;PMS7003;29709;52.396;16.796;2024-03-06T10:38:51;11;10;7
44045;PMS7003;29709;52.396;16.796;2024-03-06T10:42:09;11;8;7
44045;PMS7003;29709;52.396;16.796;2024-03-06T10:45:47;10;8;6
44045;PMS7003;29709;52.396;16.796;2024-03-06T10:48:52;10;7;5
44045;PMS7003;29709;52.396;16.796;2024-03-06T10:52:06;10;8;6
44045;PMS7003;29709;52.396;16.796;2024-03-06T10:55:20;11;10;7
44045;PMS7003;29709;52.396;16.796;2024-03-06T10:58:34;10;8;5
44045;PMS7003;29709;52.396;16.796;2024-03-06T11:01:48;12;10;7
44045;PMS7003;29709;52.396;16.796;2024-03-06T11:05:02;11;9;6
44045;PMS7003;29709;52.396;16.796;2024-03-06T11:08:18;12;10;6
44045;PMS7003;29709;52.396;16.796;2024-03-06T11:11:32;9;5;4
44045;PMS7003;29709;52.396;16.796;2024-03-06T11:14:46;11;9;6
44045;PMS7003;29709;52.396;16.796;2024-03-06T11:21:29;9;8;6
44045;PMS7003;29709;52.396;16.796;2024-03-06T11:24:43;10;10;6
44045;PMS7003;29709;52.396;16.796;2024-03-06T11:31:18;12;9;7
44045;PMS7003;29709;52.396;16.796;2024-03-06T11:34:35;12;9;7
44045;PMS7003;29709;52.396;16.796;2024-03-06T11:37:49;12;11;7
44045;PMS7003;29709;52.396;16.796;2024-03-06T11:41:05;1;1;0
44045;PMS7003;29709;52.396;16.796;2024-03-06T11:44:22;12;11;8
44045;PMS7003;29709;52.396;16.796;2024-03-06T11:47:55;9;8;6
44045;PMS7003;29709;52.396;16.796;2024-03-06T11:51:01;8;7;4
44045;PMS7003;29709;52.396;16.796;2024-03-06T11:54:15;12;9;6
44045;PMS7003;29709;52.396;16.796;2024-03-06T11:57:30;14;10;7
44045;PMS7003;29709;52.396;16.796;2024-03-06T12:00:43;10;8;6
44045;PMS7003;29709;52.396;16.796;2024-03-06T12:04:00;9;8;5
44045;PMS7003;29709;52.396;16.796;2024-03-06T12:07:14;13;9;7
44045;PMS7003;29709;52.396;16.796;2024-03-06T12:10:28;10;9;6
44045;PMS7003;29709;52.396;16.796;2024-03-06T12:13:42;7;5;4
44045;PMS7003;29709;52.396;16.796;2024-03-06T12:16:55;10;9;5
44045;PMS7003;29709;52.396;16.796;2024-03-06T12:20:13;7;5;2
44045;PMS7003;29709;52.396;16.796;2024-03-06T12:23:29;9;7;5
44045;PMS7003;29709;52.396;16.796;2024-03-06T12:26:43;8;7;6
44045;PMS7003;29709;52.396;16.796;2024-03-06T12:29:56;12;10;6
44045;PMS7003;29709;52.396;16.796;2024-03-06T12:33:09;11;8;5
44045;PMS7003;29709;52.396;16.796;2024-03-06T12:36:27;6;6;4
44045;PMS7003;29709;52.396;16.796;2024-03-06T12:39:44;7;6;4
44045;PMS7003;29709;52.396;16.796;2024-03-06T12:42:57;9;8;6
44045;PMS7003;29709;52.396;16.796;2024-03-06T12:46:10;8;6;5
44045;PMS7003;29709;52.396;16.796;2024-03-06T12:49:23;9;7;5
44045;PMS7003;29709;52.396;16.796;2024-03-06T12:52:39;10;9;6
44045;PMS7003;29709;52.396;16.796;2024-03-06T12:55:53;9;6;4
44045;PMS7003;29709;52.396;16.796;2024-03-06T12:59:06;11;7;5
44045;PMS7003;29709;52.396;16.796;2024-03-06T13:02:22;8;8;5
44045;PMS7003;29709;52.396;16.796;2024-03-06T13:05:35;8;6;4
44045;PMS7003;29709;52.396;16.796;2024-03-06T13:08:49;10;8;6
44045;PMS7003;29709;52.396;16.796;2024-03-06T13:12:02;9;7;6
44045;PMS7003;29709;52.396;16.796;2024-03-06T13:15:16;9;8;5
44045;PMS7003;29709;52.396;16.796;2024-03-06T13:18:29;10;9;6
44045;PMS7003;29709;52.396;16.796;2024-03-06T13:21:42;12;9;7
44045;PMS7003;29709;52.396;16.796;2024-03-06T13:24:56;11;10;7
44045;PMS7003;29709;52.396;16.796;2024-03-06T13:28:09;6;6;5
44045;PMS7003;29709;52.396;16.796;2024-03-06T13:31:23;9;6;5
44045;PMS7003;29709;52.396;16.796;2024-03-06T13:41:41;10;8;5
44045;PMS7003;29709;52.396;16.796;2024-03-06T13:44:54;10;10;7
44045;PMS7003;29709;52.396;16.796;2024-03-06T13:48:13;10;8;6
44045;PMS7003;29709;52.396;16.796;2024-03-06T13:51:28;14;9;6
44045;PMS7003;29709;52.396;16.796;2024-03-06T13:54:42;9;7;5
44045;PMS7003;29709;52.396;16.796;2024-03-06T13:57:56;13;9;6
44045;PMS7003;29709;52.396;16.796;2024-03-06T14:01:09;13;10;8
44045;PMS7003;29709;52.396;16.796;2024-03-06T14:04:22;14;13;8
44045;PMS7003;29709;52.396;16.796;2024-03-06T14:07:38;16;10;6
44045;PMS7003;29709;52.396;16.796;2024-03-06T14:10:54;14;12;7
44045;PMS7003;29709;52.396;16.796;2024-03-06T14:14:07;20;17;11
44045;PMS7003;29709;52.396;16.796;2024-03-06T14:17:22;17;15;10
44045;PMS7003;29709;52.396;16.796;2024-03-06T14:20:36;11;9;6
44045;PMS7003;29709;52.396;16.796;2024-03-06T14:23:53;13;11;8
44045;PMS7003;29709;52.396;16.796;2024-03-06T14:27:06;11;9;6
44045;PMS7003;29709;52.396;16.796;2024-03-06T14:30:19;13;12;7
44045;PMS7003;29709;52.396;16.796;2024-03-06T14:33:33;13;11;7
44045;PMS7003;29709;52.396;16.796;2024-03-06T14:36:47;11;9;6
44045;PMS7003;29709;52.396;16.796;2024-03-06T14:40:00;13;9;6
44045;PMS7003;29709;52.396;16.796;2024-03-06T14:43:13;12;10;6
44045;PMS7003;29709;52.396;16.796;2024-03-06T14:46:27;12;9;7
44045;PMS7003;29709;52.396;16.796;2024-03-06T14:49:42;10;9;5
44045;PMS7003;29709;52.396;16.796;2024-03-06T14:52:58;10;9;5
44045;PMS7003;29709;52.396;16.796;2024-03-06T14:56:12;13;11;8
44045;PMS7003;29709;52.396;16.796;2024-03-06T14:59:25;11;8;7
44045;PMS7003;29709;52.396;16.796;2024-03-06T15:02:39;13;10;7
44045;PMS7003;29709;52.396;16.796;2024-03-06T15:05:52;10;8;4
44045;PMS7003;29709;52.396;16.796;2024-03-06T15:09:15;9;7;5
44045;PMS7003;29709;52.396;16.796;2024-03-06T15:12:35;10;7;6
44045;PMS7003;29709;52.396;16.796;2024-03-06T15:15:50;11;9;6
44045;PMS7003;29709;52.396;16.796;2024-03-06T15:19:03;11;10;7
44045;PMS7003;29709;52.396;16.796;2024-03-06T15:22:16;10;9;7
44045;PMS7003;29709;52.396;16.796;2024-03-06T15:25:29;12;9;6
44045;PMS7003;29709;52.396;16.796;2024-03-06T15:28:43;9;8;5
44045;PMS7003;29709;52.396;16.796;2024-03-06T15:31:57;11;9;7
44045;PMS7003;29709;52.396;16.796;2024-03-06T15:35:16;11;9;6
44045;PMS7003;29709;52.396;16.796;2024-03-06T15:38:29;11;8;6
44045;PMS7003;29709;52.396;16.796;2024-03-06T15:41:44;10;10;7
44045;PMS7003;29709;52.396;16.796;2024-03-06T15:44:57;13;9;6
44045;PMS7003;29709;52.396;16.796;2024-03-06T15:48:10;11;6;3
44045;PMS7003;29709;52.396;16.796;2024-03-06T15:51:26;15;11;8
44045;PMS7003;29709;52.396;16.796;2024-03-06T15:54:40;13;9;7
44045;PMS7003;29709;52.396;16.796;2024-03-06T15:57:53;12;10;7
44045;PMS7003;29709;52.396;16.796;2024-03-06T16:01:08;13;11;7
44045;PMS7003;29709;52.396;16.796;2024-03-06T16:04:21;14;13;9
44045;PMS7003;29709;52.396;16.796;2024-03-06T16:07:34;16;12;8
44045;PMS7003;29709;52.396;16.796;2024-03-06T16:10:47;13;11;8
44045;PMS7003;29709;52.396;16.796;2024-03-06T16:14:01;12;10;7
44045;PMS7003;29709;52.396;16.796;2024-03-06T16:17:14;14;10;7
44045;PMS7003;29709;52.396;16.796;2024-03-06T16:20:27;15;13;9
44045;PMS7003;29709;52.396;16.796;2024-03-06T16:23:40;13;12;9
44045;PMS7003;29709;52.396;16.796;2024-03-06T16:26:54;19;14;10
44045;PMS7003;29709;52.396;16.796;2024-03-06T16:30:08;14;12;8
44045;PMS7003;29709;52.396;16.796;2024-03-06T16:33:22;15;12;9
44045;PMS7003;29709;52.396;16.796;2024-03-06T16:36:37;16;11;8
44045;PMS7003;29709;52.396;16.796;2024-03-06T16:39:53;13;10;8
44045;PMS7003;29709;52.396;16.796;2024-03-06T16:43:06;11;9;6
44045;PMS7003;29709;52.396;16.796;2024-03-06T16:46:19;12;11;9
44045;PMS7003;29709;52.396;16.796;2024-03-06T16:49:32;15;11;8
44045;PMS7003;29709;52.396;16.796;2024-03-06T16:52:46;15;12;9
44045;PMS7003;29709;52.396;16.796;2024-03-06T16:55:59;13;12;7
44045;PMS7003;29709;52.396;16.796;2024-03-06T16:59:13;12;9;7
44045;PMS7003;29709;52.396;16.796;2024-03-06T17:02:29;12;10;7
44045;PMS7003;29709;52.396;16.796;2024-03-06T17:05:49;12;9;7
44045;PMS7003;29709;52.396;16.796;2024-03-06T17:09:10;10;6;2
44045;PMS7003;29709;52.396;16.796;2024-03-06T17:12:24;16;11;7
44045;PMS7003;29709;52.396;16.796;2024-03-06T17:15:37;13;9;7
44045;PMS7003;29709;52.396;16.796;2024-03-06T17:18:50;12;10;8
44045;PMS7003;29709;52.396;16.796;2024-03-06T17:22:06;14;11;8
44045;PMS7003;29709;52.396;16.796;2024-03-06T17:25:20;13;11;8
44045;PMS7003;29709;52.396;16.796;2024-03-06T17:28:36;10;9;6
44045;PMS7003;29709;52.396;16.796;2024-03-06T17:31:52;13;11;7
44045;PMS7003;29709;52.396;16.796;2024-03-06T17:35:06;16;13;8
44045;PMS7003;29709;52.396;16.796;2024-03-06T17:38:21;11;9;7
44045;PMS7003;29709;52.396;16.796;2024-03-06T17:41:40;10;9;6
44045;PMS7003;29709;52.396;16.796;2024-03-06T17:44:57;14;10;7
44045;PMS7003;29709;52.396;16.796;2024-03-06T17:48:10;9;8;6
44045;PMS7003;29709;52.396;16.796;2024-03-06T17:54:42;14;11;7
44045;PMS7003;29709;52.396;16.796;2024-03-06T17:57:56;14;10;8
44045;PMS7003;29709;52.396;16.796;2024-03-06T18:01:09;16;13;9
44045;PMS7003;29709;52.396;16.796;2024-03-06T18:04:22;15;13;10
44045;PMS7003;29709;52.396;16.796;2024-03-06T18:07:37;12;10;7
44045;PMS7003;29709;52.396;16.796;2024-03-06T18:10:50;15;13;9
44045;PMS7003;29709;52.396;16.796;2024-03-06T18:14:03;16;11;8
44045;PMS7003;29709;52.396;16.796;2024-03-06T18:17:16;16;12;8
44045;PMS7003;29709;52.396;16.796;2024-03-06T18:20:33;14;11;7
44045;PMS7003;29709;52.396;16.796;2024-03-06T18:23:46;16;14;9
44045;PMS7003;29709;52.396;16.796;2024-03-06T18:27:00;18;15;11
44045;PMS7003;29709;52.396;16.796;2024-03-06T18:30:13;14;11;9
44045;PMS7003;29709;52.396;16.796;2024-03-06T18:33:27;13;11;7
44045;PMS7003;29709;52.396;16.796;2024-03-06T18:36:40;22;18;12
44045;PMS7003;29709;52.396;16.796;2024-03-06T18:39:54;28;21;13
44045;PMS7003;29709;52.396;16.796;2024-03-06T18:43:07;12;10;8
44045;PMS7003;29709;52.396;16.796;2024-03-06T18:46:21;16;12;9
44045;PMS7003;29709;52.396;16.796;2024-03-06T18:49:34;13;10;8
44045;PMS7003;29709;52.396;16.796;2024-03-06T18:52:48;17;14;9
44045;PMS7003;29709;52.396;16.796;2024-03-06T18:56:02;22;20;14
44045;PMS7003;29709;52.396;16.796;2024-03-06T18:59:16;20;18;13
44045;PMS7003;29709;52.396;16.796;2024-03-06T19:02:31;16;13;8
44045;PMS7003;29709;52.396;16.796;2024-03-06T19:05:44;11;9;7
44045;PMS7003;29709;52.396;16.796;2024-03-06T19:08:58;17;13;9
44045;PMS7003;29709;52.396;16.796;2024-03-06T19:12:11;22;15;10
44045;PMS7003;29709;52.396;16.796;2024-03-06T19:15:26;19;15;11
44045;PMS7003;29709;52.396;16.796;2024-03-06T19:18:40;18;13;9
44045;PMS7003;29709;52.396;16.796;2024-03-06T19:21:53;12;9;5
44045;PMS7003;29709;52.396;16.796;2024-03-06T19:25:07;19;14;10
44045;PMS7003;29709;52.396;16.796;2024-03-06T19:28:23;12;10;6
44045;PMS7003;29709;52.396;16.796;2024-03-06T19:31:37;19;16;11
44045;PMS7003;29709;52.396;16.796;2024-03-06T19:34:50;18;15;10
44045;PMS7003;29709;52.396;16.796;2024-03-06T19:38:03;15;9;6
44045;PMS7003;29709;52.396;16.796;2024-03-06T19:41:18;20;16;11
44045;PMS7003;29709;52.396;16.796;2024-03-06T19:44:31;19;13;8
44045;PMS7003;29709;52.396;16.796;2024-03-06T19:47:45;18;14;10
44045;PMS7003;29709;52.396;16.796;2024-03-06T19:50:58;17;13;9
44045;PMS7003;29709;52.396;16.796;2024-03-06T19:54:12;19;17;12
44045;PMS7003;29709;52.396;16.796;2024-03-06T19:57:25;21;18;12
44045;PMS7003;29709;52.396;16.796;2024-03-06T20:00:38;20;19;12
44045;PMS7003;29709;52.396;16.796;2024-03-06T20:03:52;20;17;12
44045;PMS7003;29709;52.396;16.796;2024-03-06T20:07:10;17;15;10
44045;PMS7003;29709;52.396;16.796;2024-03-06T20:10:23;17;14;10
44045;PMS7003;29709;52.396;16.796;2024-03-06T20:13:38;18;14;10
44045;PMS7003;29709;52.396;16.796;2024-03-06T20:16:51;18;14;10
44045;PMS7003;29709;52.396;16.796;2024-03-06T20:20:05;21;18;12
44045;PMS7003;29709;52.396;16.796;2024-03-06T20:23:24;22;18;13
44045;PMS7003;29709;52.396;16.796;2024-03-06T20:26:37;21;15;10
44045;PMS7003;29709;52.396;16.796;2024-03-06T20:29:51;17;15;10
44045;PMS7003;29709;52.396;16.796;2024-03-06T20:33:04;14;11;8
44045;PMS7003;29709;52.396;16.796;2024-03-06T20:36:18;12;11;7
44045;PMS7003;29709;52.396;16.796;2024-03-06T20:39:32;16;13;9
44045;PMS7003;29709;52.396;16.796;2024-03-06T20:42:48;12;10;6
44045;PMS7003;29709;52.396;16.796;2024-03-06T20:46:02;20;15;11
44045;PMS7003;29709;52.396;16.796;2024-03-06T20:49:15;15;13;9
44045;PMS7003;29709;52.396;16.796;2024-03-06T20:52:29;14;11;7
44045;PMS7003;29709;52.396;16.796;2024-03-06T20:55:42;9;4;2
44045;PMS7003;29709;52.396;16.796;2024-03-06T20:59:00;10;8;6
44045;PMS7003;29709;52.396;16.796;2024-03-06T21:02:13;6;6;3
44045;PMS7003;29709;52.396;16.796;2024-03-06T21:05:26;11;9;7
44045;PMS7003;29709;52.396;16.796;2024-03-06T21:08:41;11;10;7
44045;PMS7003;29709;52.396;16.796;2024-03-06T21:11:54;11;8;6
44045;PMS7003;29709;52.396;16.796;2024-03-06T21:15:08;10;7;4
44045;PMS7003;29709;52.396;16.796;2024-03-06T21:18:22;9;7;5